Time;durP1;ratioP1;P1;durP2;ratioP2;P2;SDS_P1;SDS_P2;PMS_P1;PMS_P2;Temp;Humidity;BMP_temperature;BMP_pressure;BME280_temperature;BME280_humidity;BME280_pressure;Samples;Min_cycle;Max_cycle;Signal;HPM_P1;HPM_P2
2023/08/23 00:01:59;;;;;;;6.18;1.90;;;;;;;;;;5150372;27;20050;-72
2023/08/23 00:04:26;;;;;;;4.20;1.80;;;;;;;;;;5150458;27;20076;-72
2023/08/23 00:06:53;;;;;;;2.30;1.60;;;;;;;;;;5150286;27;20118;-73
2023/08/23 00:09:20;;;;;;;2.97;1.88;;;;;;;;;;5149967;27;20042;-72
2023/08/23 00:11:47;;;;;;;4.05;1.70;;;;;;;;;;5154202;27;20043;-72
2023/08/23 00:14:13;;;;;;;2.65;1.63;;;;;;;;;;5154533;27;20074;-72
2023/08/23 00:16:40;;;;;;;3.05;1.73;;;;;;;;;;5154447;27;20046;-72
2023/08/23 00:19:07;;;;;;;3.55;2.10;;;;;;;;;;5153215;27;20447;-72
2023/08/23 00:21:33;;;;;;;3.55;2.20;;;;;;;;;;5154629;27;20502;-72
2023/08/23 00:24:00;;;;;;;2.83;1.80;;;;;;;;;;5153987;27;20444;-72
2023/08/23 00:26:27;;;;;;;6.90;1.90;;;;;;;;;;5154084;27;20549;-72
2023/08/23 00:28:53;;;;;;;3.65;1.73;;;;;;;;;;5154138;27;20065;-72
2023/08/23 00:31:20;;;;;;;6.22;1.88;;;;;;;;;;5154335;27;20514;-72
2023/08/23 00:33:47;;;;;;;2.63;1.85;;;;;;;;;;5154043;27;20173;-72
2023/08/23 00:36:13;;;;;;;6.20;1.75;;;;;;;;;;5154268;27;20043;-72
2023/08/23 00:38:40;;;;;;;3.08;2.00;;;;;;;;;;5153854;27;20042;-72
2023/08/23 00:41:07;;;;;;;5.47;1.90;;;;;;;;;;5154227;27;20513;-72
2023/08/23 00:43:33;;;;;;;4.20;1.80;;;;;;;;;;5153860;27;20047;-72
2023/08/23 00:46:01;;;;;;;2.95;1.98;;;;;;;;;;5153851;27;20053;-72
2023/08/23 00:48:28;;;;;;;3.17;1.70;;;;;;;;;;5153918;27;20043;-72
2023/08/23 00:50:55;;;;;;;2.60;1.52;;;;;;;;;;5154019;27;20047;-72
2023/08/23 00:53:21;;;;;;;2.85;1.80;;;;;;;;;;5153536;27;20038;-72
2023/08/23 00:55:48;;;;;;;3.53;1.90;;;;;;;;;;5153638;27;20058;-73
2023/08/23 00:58:15;;;;;;;3.33;1.77;;;;;;;;;;5153878;27;20127;-72
2023/08/23 01:00:42;;;;;;;3.72;2.13;;;;;;;;;;5153911;27;20062;-72
2023/08/23 01:03:09;;;;;;;3.30;1.70;;;;;;;;;;5153676;27;20061;-73
2023/08/23 01:05:47;;;;;;;5.53;2.10;;;;;;;;;;5153831;27;20043;-72
2023/08/23 01:09:08;;;;;;;5.30;1.80;;;;;;;;;;5153109;27;20046;-72
2023/08/23 01:11:45;;;;;;;3.15;2.05;;;;;;;;;;5068746;28;20508;-72
2023/08/23 01:14:35;;;;;;;4.45;1.95;;;;;;;;;;5153447;27;20484;-72
2023/08/23 01:17:03;;;;;;;3.10;1.95;;;;;;;;;;5114154;27;20050;-72
2023/08/23 01:19:46;;;;;;;5.85;2.33;;;;;;;;;;5153334;27;20118;-72
2023/08/23 01:22:18;;;;;;;3.80;1.83;;;;;;;;;;5152134;27;20073;-72
2023/08/23 01:24:49;;;;;;;2.45;1.70;;;;;;;;;;5153325;27;20111;-72
2023/08/23 01:27:19;;;;;;;4.40;2.05;;;;;;;;;;5153026;27;20038;-72
2023/08/23 01:29:47;;;;;;;3.88;2.05;;;;;;;;;;5153356;27;20050;-72
2023/08/23 01:32:25;;;;;;;4.38;2.00;;;;;;;;;;5153463;27;20047;-72
2023/08/23 01:34:57;;;;;;;3.60;1.92;;;;;;;;;;5153075;27;20057;-73
2023/08/23 01:37:26;;;;;;;3.88;2.13;;;;;;;;;;5152479;27;20047;-72
2023/08/23 01:39:53;;;;;;;3.88;2.10;;;;;;;;;;5152466;27;20047;-72
2023/08/23 01:42:21;;;;;;;5.30;2.28;;;;;;;;;;5152833;27;20415;-72
2023/08/23 01:44:50;;;;;;;6.75;1.98;;;;;;;;;;5152867;27;20043;-73
2023/08/23 01:47:18;;;;;;;2.17;1.60;;;;;;;;;;5152746;27;20050;-72
2023/08/23 01:49:45;;;;;;;2.80;1.70;;;;;;;;;;5152676;27;20046;-72
2023/08/23 01:52:11;;;;;;;5.10;2.13;;;;;;;;;;5152882;27;20043;-72
2023/08/23 01:54:38;;;;;;;3.00;2.25;;;;;;;;;;5151985;27;20046;-72
2023/08/23 01:57:05;;;;;;;3.95;2.25;;;;;;;;;;5152565;27;20043;-72
2023/08/23 01:59:31;;;;;;;3.30;1.70;;;;;;;;;;5152431;27;20042;-72
2023/08/23 02:01:58;;;;;;;4.65;1.60;;;;;;;;;;5151716;27;20043;-72
2023/08/23 02:04:25;;;;;;;2.63;1.83;;;;;;;;;;5152317;27;20054;-72
2023/08/23 02:06:51;;;;;;;2.67;1.90;;;;;;;;;;5152632;27;20050;-72
2023/08/23 02:09:18;;;;;;;4.65;2.08;;;;;;;;;;5151908;27;20541;-72
2023/08/23 02:11:45;;;;;;;5.15;2.25;;;;;;;;;;5152598;27;20043;-72
2023/08/23 02:14:11;;;;;;;4.40;2.40;;;;;;;;;;5152363;27;20043;-72
2023/08/23 02:16:38;;;;;;;2.92;1.88;;;;;;;;;;5152093;27;20670;-73
2023/08/23 02:19:04;;;;;;;3.80;1.98;;;;;;;;;;5151913;27;20047;-72
2023/08/23 02:21:31;;;;;;;3.58;2.00;;;;;;;;;;5152238;27;20043;-72
2023/08/23 02:23:58;;;;;;;5.45;1.90;;;;;;;;;;5151912;27;20055;-72
2023/08/23 02:26:27;;;;;;;4.63;2.10;;;;;;;;;;5152126;27;20099;-72
2023/08/23 02:28:54;;;;;;;5.28;2.00;;;;;;;;;;5151767;27;20073;-72
2023/08/23 02:31:21;;;;;;;3.55;1.92;;;;;;;;;;5152066;27;20047;-72
2023/08/23 02:33:47;;;;;;;2.85;1.80;;;;;;;;;;5149920;27;20137;-72
2023/08/23 02:36:14;;;;;;;6.47;2.15;;;;;;;;;;5151796;27;20039;-72
2023/08/23 02:38:41;;;;;;;4.55;2.17;;;;;;;;;;5151384;27;20103;-72
2023/08/23 02:41:08;;;;;;;2.90;1.83;;;;;;;;;;5151807;27;20077;-72
2023/08/23 02:43:35;;;;;;;4.47;2.20;;;;;;;;;;5152080;27;20039;-72
2023/08/23 02:46:02;;;;;;;3.78;2.08;;;;;;;;;;5151688;27;20042;-72
2023/08/23 02:48:29;;;;;;;6.85;2.33;;;;;;;;;;5151457;27;20424;-72
2023/08/23 02:50:56;;;;;;;4.20;1.85;;;;;;;;;;5151345;27;20046;-72
2023/08/23 02:53:23;;;;;;;4.63;2.25;;;;;;;;;;5151364;27;20046;-72
2023/08/23 02:55:49;;;;;;;5.75;2.10;;;;;;;;;;5151388;27;20046;-72
2023/08/23 02:58:16;;;;;;;4.35;2.10;;;;;;;;;;5151437;27;20047;-72
2023/08/23 03:00:42;;;;;;;5.28;2.40;;;;;;;;;;5151204;27;20043;-72
2023/08/23 03:03:09;;;;;;;3.10;2.10;;;;;;;;;;5151671;27;20050;-72
2023/08/23 03:05:36;;;;;;;4.25;2.50;;;;;;;;;;5151179;27;20054;-72
2023/08/23 03:08:03;;;;;;;3.78;2.22;;;;;;;;;;5150781;27;20077;-72
2023/08/23 03:10:30;;;;;;;5.85;2.20;;;;;;;;;;5150900;27;20045;-72
2023/08/23 03:12:56;;;;;;;5.35;2.35;;;;;;;;;;5151188;27;20419;-72
2023/08/23 03:15:23;;;;;;;3.75;1.92;;;;;;;;;;5150986;27;20062;-72
2023/08/23 03:17:50;;;;;;;6.00;2.05;;;;;;;;;;5151115;27;20486;-72
2023/08/23 03:20:17;;;;;;;4.60;2.33;;;;;;;;;;5151221;27;20043;-72
2023/08/23 03:22:43;;;;;;;3.00;2.03;;;;;;;;;;5150574;27;20042;-72
2023/08/23 03:25:10;;;;;;;3.25;2.45;;;;;;;;;;5150656;27;20050;-72
2023/08/23 03:27:37;;;;;;;4.38;2.28;;;;;;;;;;5150983;27;20561;-72
2023/08/23 03:30:04;;;;;;;3.58;2.20;;;;;;;;;;5150509;27;20051;-72
2023/08/23 03:32:31;;;;;;;5.13;2.50;;;;;;;;;;5151143;27;20047;-72
2023/08/23 03:34:58;;;;;;;5.88;2.22;;;;;;;;;;5150630;27;20082;-72
2023/08/23 03:37:24;;;;;;;5.40;2.42;;;;;;;;;;5150573;27;20095;-72
2023/08/23 03:39:51;;;;;;;7.28;2.20;;;;;;;;;;5150715;27;20047;-72
2023/08/23 03:42:18;;;;;;;4.80;2.33;;;;;;;;;;5150688;27;20054;-72
2023/08/23 03:44:44;;;;;;;6.22;2.30;;;;;;;;;;5149759;27;20043;-72
2023/08/23 03:47:11;;;;;;;3.30;2.17;;;;;;;;;;5150663;27;20047;-72
2023/08/23 03:49:38;;;;;;;4.57;2.25;;;;;;;;;;5150686;27;20046;-72
2023/08/23 03:52:04;;;;;;;3.53;2.35;;;;;;;;;;5150707;27;20043;-72
2023/08/23 03:54:31;;;;;;;3.75;2.05;;;;;;;;;;5150100;27;20602;-72
2023/08/23 03:56:58;;;;;;;3.97;2.50;;;;;;;;;;5150484;27;20046;-72
2023/08/23 03:59:24;;;;;;;5.00;2.33;;;;;;;;;;5150187;27;20053;-72
2023/08/23 04:01:51;;;;;;;4.95;2.58;;;;;;;;;;5150252;27;20035;-72
2023/08/23 04:04:18;;;;;;;3.30;2.15;;;;;;;;;;5150480;27;20547;-72
2023/08/23 04:06:44;;;;;;;8.90;2.80;;;;;;;;;;5150348;27;20069;-72
2023/08/23 04:09:11;;;;;;;5.20;2.47;;;;;;;;;;5150335;27;20046;-72
2023/08/23 04:11:38;;;;;;;5.88;2.33;;;;;;;;;;5150292;27;20483;-72
2023/08/23 04:14:04;;;;;;;6.38;2.20;;;;;;;;;;5150351;27;20398;-72
2023/08/23 04:16:31;;;;;;;6.93;2.45;;;;;;;;;;5150521;27;20057;-72
2023/08/23 04:18:58;;;;;;;5.72;2.65;;;;;;;;;;5150412;27;20043;-72
2023/08/23 04:21:24;;;;;;;5.43;2.13;;;;;;;;;;5150275;27;20049;-72
2023/08/23 04:23:52;;;;;;;3.67;2.13;;;;;;;;;;5150085;27;20047;-72
2023/08/23 04:26:19;;;;;;;5.00;2.53;;;;;;;;;;5150177;27;20144;-72
2023/08/23 04:28:46;;;;;;;3.70;2.20;;;;;;;;;;5150448;27;20053;-72
2023/08/23 04:31:13;;;;;;;5.47;2.08;;;;;;;;;;5150136;27;20047;-72
2023/08/23 04:33:42;;;;;;;3.03;1.95;;;;;;;;;;5149964;27;20569;-72
2023/08/23 04:36:09;;;;;;;8.20;2.42;;;;;;;;;;5149948;27;20054;-72
2023/08/23 04:38:36;;;;;;;5.85;2.22;;;;;;;;;;5149584;27;20049;-72
2023/08/23 04:41:04;;;;;;;5.43;2.20;;;;;;;;;;5149544;27;20452;-72
2023/08/23 04:43:30;;;;;;;3.78;2.10;;;;;;;;;;5150644;27;20043;-72
2023/08/23 04:45:58;;;;;;;5.38;2.40;;;;;;;;;;5149952;27;20058;-72
2023/08/23 04:48:26;;;;;;;6.57;2.30;;;;;;;;;;5149947;27;20046;-72
2023/08/23 04:50:55;;;;;;;7.18;2.50;;;;;;;;;;5149968;27;20047;-71
2023/08/23 04:53:22;;;;;;;4.63;2.13;;;;;;;;;;5149472;27;20502;-72
2023/08/23 04:55:48;;;;;;;3.90;2.40;;;;;;;;;;5149936;27;20046;-72
2023/08/23 04:58:16;;;;;;;3.70;2.22;;;;;;;;;;5153914;27;20051;-72
2023/08/23 05:00:44;;;;;;;2.83;2.00;;;;;;;;;;5153538;27;20055;-73
2023/08/23 05:03:12;;;;;;;5.47;2.30;;;;;;;;;;5153954;27;20043;-72
2023/08/23 05:05:40;;;;;;;3.80;2.30;;;;;;;;;;5153691;27;20058;-72
2023/08/23 05:08:07;;;;;;;6.07;2.53;;;;;;;;;;5153224;27;20498;-72
2023/08/23 05:10:34;;;;;;;3.80;2.67;;;;;;;;;;5152418;27;20065;-72
2023/08/23 05:13:01;;;;;;;6.57;2.65;;;;;;;;;;5153439;27;20053;-72
2023/08/23 05:15:28;;;;;;;4.65;2.70;;;;;;;;;;5153608;27;20043;-72
2023/08/23 05:17:55;;;;;;;5.32;2.72;;;;;;;;;;5153596;27;20049;-72
2023/08/23 05:20:21;;;;;;;5.85;2.35;;;;;;;;;;5153298;27;20050;-72
2023/08/23 05:22:48;;;;;;;3.92;2.22;;;;;;;;;;5152916;27;20047;-72
2023/08/23 05:25:15;;;;;;;4.65;2.67;;;;;;;;;;5153286;27;20588;-72
2023/08/23 05:27:41;;;;;;;6.85;2.72;;;;;;;;;;5152920;27;20508;-72
2023/08/23 05:30:09;;;;;;;4.90;2.65;;;;;;;;;;5153081;27;20553;-72
2023/08/23 05:32:35;;;;;;;4.43;2.35;;;;;;;;;;5152716;27;20061;-72
2023/08/23 05:35:03;;;;;;;3.38;2.10;;;;;;;;;;5153231;27;20046;-72
2023/08/23 05:37:29;;;;;;;6.28;2.40;;;;;;;;;;5152586;27;20490;-73
2023/08/23 05:39:56;;;;;;;5.75;2.35;;;;;;;;;;5153179;27;20078;-74
2023/08/23 05:42:23;;;;;;;4.53;2.25;;;;;;;;;;5152793;27;20131;-73
2023/08/23 05:44:50;;;;;;;3.50;2.30;;;;;;;;;;5153133;27;20046;-73
2023/08/23 05:47:17;;;;;;;3.95;2.55;;;;;;;;;;5153116;27;20078;-73
2023/08/23 05:49:43;;;;;;;5.97;2.88;;;;;;;;;;5152443;27;20435;-73
2023/08/23 05:52:10;;;;;;;4.47;2.70;;;;;;;;;;5152899;27;20049;-73
2023/08/23 05:54:36;;;;;;;6.93;2.55;;;;;;;;;;5152419;27;20505;-73
2023/08/23 05:57:04;;;;;;;5.28;2.58;;;;;;;;;;5152571;27;20043;-73
2023/08/23 05:59:33;;;;;;;3.15;2.42;;;;;;;;;;5152879;27;20053;-73
2023/08/23 06:02:00;;;;;;;2.60;2.05;;;;;;;;;;5152402;27;20426;-73
2023/08/23 06:04:27;;;;;;;5.18;2.70;;;;;;;;;;5152648;27;20057;-72
2023/08/23 06:06:54;;;;;;;4.45;2.35;;;;;;;;;;5152416;27;20047;-73
2023/08/23 06:09:21;;;;;;;3.88;2.40;;;;;;;;;;5151191;27;20047;-73
2023/08/23 06:11:48;;;;;;;5.05;2.95;;;;;;;;;;5152624;27;20054;-73
2023/08/23 06:14:26;;;;;;;4.45;2.67;;;;;;;;;;5152383;27;20495;-72
2023/08/23 06:16:53;;;;;;;6.35;2.50;;;;;;;;;;5152345;27;20066;-72
2023/08/23 06:19:19;;;;;;;5.18;2.70;;;;;;;;;;5152227;27;20130;-73
2023/08/23 06:21:46;;;;;;;6.95;2.42;;;;;;;;;;5152183;27;20039;-73
2023/08/23 06:24:13;;;;;;;4.72;2.63;;;;;;;;;;5152322;27;20046;-73
2023/08/23 06:26:39;;;;;;;6.32;2.50;;;;;;;;;;5151607;27;20054;-74
2023/08/23 06:29:06;;;;;;;7.90;2.58;;;;;;;;;;5151936;27;20620;-72
2023/08/23 06:31:33;;;;;;;5.50;2.88;;;;;;;;;;5151737;27;20047;-73
2023/08/23 06:34:00;;;;;;;5.78;2.58;;;;;;;;;;5152061;27;20046;-72
2023/08/23 06:36:27;;;;;;;11.02;2.65;;;;;;;;;;5151904;27;20082;-72
2023/08/23 06:38:54;;;;;;;4.43;2.78;;;;;;;;;;5151548;27;20074;-72
2023/08/23 06:41:20;;;;;;;5.07;2.45;;;;;;;;;;5150270;27;20050;-72
2023/08/23 06:43:47;;;;;;;5.45;2.75;;;;;;;;;;5151691;27;20051;-73
2023/08/23 06:46:14;;;;;;;4.75;2.28;;;;;;;;;;5151570;27;20047;-73
2023/08/23 06:48:41;;;;;;;5.20;2.65;;;;;;;;;;5151423;27;20546;-72
2023/08/23 06:51:08;;;;;;;6.93;2.67;;;;;;;;;;5151615;27;20417;-74
2023/08/23 06:53:35;;;;;;;4.95;2.60;;;;;;;;;;5151340;27;20054;-73
2023/08/23 06:56:03;;;;;;;4.60;2.50;;;;;;;;;;5151464;27;20043;-73
2023/08/23 06:58:30;;;;;;;3.90;2.20;;;;;;;;;;5151688;27;20043;-73
2023/08/23 07:00:57;;;;;;;6.00;3.03;;;;;;;;;;5151681;27;20085;-72
2023/08/23 07:03:24;;;;;;;5.07;2.70;;;;;;;;;;5151241;27;20134;-72
2023/08/23 07:05:51;;;;;;;3.95;2.30;;;;;;;;;;5151736;27;20053;-73
2023/08/23 07:08:18;;;;;;;4.15;2.63;;;;;;;;;;5151025;27;20050;-73
2023/08/23 07:10:45;;;;;;;5.05;2.65;;;;;;;;;;5151314;27;20508;-73
2023/08/23 07:13:11;;;;;;;4.07;2.83;;;;;;;;;;5151168;27;20050;-73
2023/08/23 07:15:40;;;;;;;6.75;3.03;;;;;;;;;;5150991;27;20047;-72
2023/08/23 07:18:08;;;;;;;4.40;2.60;;;;;;;;;;5151095;27;20043;-73
2023/08/23 07:20:35;;;;;;;3.28;2.35;;;;;;;;;;5149980;27;20062;-72
2023/08/23 07:23:02;;;;;;;4.10;2.42;;;;;;;;;;5150692;27;20050;-73
2023/08/23 07:25:29;;;;;;;3.90;2.50;;;;;;;;;;5151192;27;20456;-73
2023/08/23 07:27:56;;;;;;;5.82;2.83;;;;;;;;;;5151249;27;20111;-72
2023/08/23 07:30:23;;;;;;;4.53;2.35;;;;;;;;;;5151134;27;20043;-72
2023/08/23 07:32:50;;;;;;;6.80;2.50;;;;;;;;;;5150753;27;20050;-73
2023/08/23 07:35:17;;;;;;;5.80;2.70;;;;;;;;;;5150833;27;20092;-73
2023/08/23 07:37:43;;;;;;;2.45;2.03;;;;;;;;;;5150253;27;20039;-73
2023/08/23 07:40:10;;;;;;;4.30;2.50;;;;;;;;;;5150399;27;20043;-72
2023/08/23 07:42:37;;;;;;;3.47;2.42;;;;;;;;;;5150800;27;20692;-72
2023/08/23 07:45:04;;;;;;;3.55;2.45;;;;;;;;;;5150847;27;20506;-73
2023/08/23 07:47:31;;;;;;;3.45;2.47;;;;;;;;;;5150447;27;20556;-73
2023/08/23 07:49:58;;;;;;;3.58;2.20;;;;;;;;;;5149341;27;20046;-73
2023/08/23 07:52:28;;;;;;;3.87;2.57;;;;;;;;;;5149988;27;20042;-73
2023/08/23 07:54:55;;;;;;;7.40;3.10;;;;;;;;;;5150691;27;20051;-73
2023/08/23 07:57:21;;;;;;;5.20;2.58;;;;;;;;;;5150137;27;20042;-72
2023/08/23 07:59:48;;;;;;;6.43;2.47;;;;;;;;;;5150493;27;20391;-73
2023/08/23 08:02:15;;;;;;;8.82;3.15;;;;;;;;;;5150640;27;20058;-73
2023/08/23 08:04:43;;;;;;;5.03;2.85;;;;;;;;;;5150548;27;20046;-73
2023/08/23 08:07:09;;;;;;;6.85;2.83;;;;;;;;;;5150654;27;20061;-73
2023/08/23 08:09:36;;;;;;;7.15;2.75;;;;;;;;;;5149910;27;20204;-73
2023/08/23 08:12:03;;;;;;;5.22;2.85;;;;;;;;;;5150125;27;20495;-73
2023/08/23 08:14:30;;;;;;;6.53;3.25;;;;;;;;;;5150114;27;20576;-73
2023/08/23 08:16:57;;;;;;;6.00;2.60;;;;;;;;;;5150209;27;20555;-73
2023/08/23 08:19:24;;;;;;;7.43;3.50;;;;;;;;;;5150102;27;20511;-72
2023/08/23 08:21:50;;;;;;;6.03;2.92;;;;;;;;;;5150187;27;20058;-73
2023/08/23 08:24:17;;;;;;;4.00;2.78;;;;;;;;;;5150044;27;20070;-73
2023/08/23 08:26:43;;;;;;;7.05;3.10;;;;;;;;;;5150317;27;20049;-73
2023/08/23 08:29:10;;;;;;;5.22;2.90;;;;;;;;;;5150229;27;20057;-73
2023/08/23 08:31:39;;;;;;;5.70;2.65;;;;;;;;;;5151957;27;20050;-73
2023/08/23 08:34:08;;;;;;;4.18;2.75;;;;;;;;;;5153955;27;20513;-73
2023/08/23 08:36:34;;;;;;;7.10;2.70;;;;;;;;;;5154379;27;20039;-73
2023/08/23 08:39:01;;;;;;;5.40;2.67;;;;;;;;;;5153761;27;20552;-73
2023/08/23 08:41:28;;;;;;;5.00;3.15;;;;;;;;;;5154183;27;20491;-73
2023/08/23 08:43:55;;;;;;;5.82;2.75;;;;;;;;;;5154281;27;20050;-73
2023/08/23 08:46:21;;;;;;;4.18;2.80;;;;;;;;;;5154096;27;20050;-72
2023/08/23 08:48:48;;;;;;;4.22;3.05;;;;;;;;;;5153825;27;20047;-72
2023/08/23 08:51:19;;;;;;;5.07;2.78;;;;;;;;;;5152696;27;20606;-72
2023/08/23 08:53:52;;;;;;;7.18;2.78;;;;;;;;;;5153805;27;20043;-72
2023/08/23 08:56:20;;;;;;;6.07;3.00;;;;;;;;;;5152633;27;20039;-73
2023/08/23 08:58:50;;;;;;;5.60;3.15;;;;;;;;;;5153859;27;20493;-72
2023/08/23 09:01:17;;;;;;;4.57;2.70;;;;;;;;;;5153780;27;20047;-72
2023/08/23 09:03:44;;;;;;;7.20;3.05;;;;;;;;;;5153465;27;20479;-72
2023/08/23 09:06:11;;;;;;;3.78;2.80;;;;;;;;;;5153958;27;20546;-72
2023/08/23 09:08:38;;;;;;;3.88;2.53;;;;;;;;;;5153132;27;20065;-72
2023/08/23 09:11:04;;;;;;;4.40;2.80;;;;;;;;;;5153448;27;20585;-72
2023/08/23 09:13:31;;;;;;;5.97;2.75;;;;;;;;;;5153660;27;20045;-72
2023/08/23 09:15:58;;;;;;;7.40;2.70;;;;;;;;;;5153634;27;20060;-72
2023/08/23 09:18:25;;;;;;;5.18;3.22;;;;;;;;;;5153755;27;20045;-72
2023/08/23 09:20:52;;;;;;;4.45;2.78;;;;;;;;;;5153462;27;20042;-72
2023/08/23 09:23:19;;;;;;;4.50;2.85;;;;;;;;;;5153096;27;20042;-72
2023/08/23 09:25:48;;;;;;;4.57;2.88;;;;;;;;;;5153585;27;20053;-72
2023/08/23 09:28:15;;;;;;;5.45;2.65;;;;;;;;;;5153005;27;20038;-72
2023/08/23 09:30:47;;;;;;;5.78;2.58;;;;;;;;;;5153046;27;20580;-72
2023/08/23 09:33:13;;;;;;;4.22;2.50;;;;;;;;;;5153112;27;20054;-72
2023/08/23 09:35:47;;;;;;;3.95;2.40;;;;;;;;;;5152982;27;20091;-72
2023/08/23 09:38:21;;;;;;;4.97;2.70;;;;;;;;;;5153048;27;20070;-72
2023/08/23 09:40:48;;;;;;;3.95;2.80;;;;;;;;;;5152908;27;20038;-72
2023/08/23 09:43:16;;;;;;;4.88;2.70;;;;;;;;;;5151545;27;20107;-72
2023/08/23 09:45:44;;;;;;;6.68;3.05;;;;;;;;;;5153126;27;20057;-72
2023/08/23 09:48:11;;;;;;;5.40;3.08;;;;;;;;;;5153348;27;20050;-72
2023/08/23 09:50:38;;;;;;;6.93;3.10;;;;;;;;;;5152639;27;20448;-72
2023/08/23 09:53:27;;;;;;;5.32;2.83;;;;;;;;;;5152518;27;20050;-72
2023/08/23 09:55:54;;;;;;;7.32;3.00;;;;;;;;;;5152788;27;20038;-72
2023/08/23 09:58:22;;;;;;;7.40;2.65;;;;;;;;;;5152799;27;20080;-72
2023/08/23 10:00:49;;;;;;;4.28;2.72;;;;;;;;;;5152515;27;20135;-72
2023/08/23 10:03:18;;;;;;;3.60;3.00;;;;;;;;;;5152716;27;20890;-72
2023/08/23 10:05:46;;;;;;;3.28;2.30;;;;;;;;;;5152538;27;20504;-72
2023/08/23 10:08:13;;;;;;;4.60;2.97;;;;;;;;;;5151985;27;20384;-73
2023/08/23 10:10:43;;;;;;;3.72;2.60;;;;;;;;;;5152540;27;20047;-72
2023/08/23 10:13:10;;;;;;;;;;;;;;;;;;5153111;27;20043;-73
2023/08/23 10:15:39;;;;;;;6.50;2.58;;;;;;;;;;5152091;27;20021;-72
2023/08/23 10:18:12;;;;;;;3.67;2.50;;;;;;;;;;5152324;27;20135;-72
2023/08/23 10:20:41;;;;;;;5.50;2.40;;;;;;;;;;5151910;27;20524;-72
2023/08/23 10:23:12;;;;;;;7.05;2.60;;;;;;;;;;5152118;27;20095;-73
2023/08/23 10:25:42;;;;;;;4.28;2.58;;;;;;;;;;5152260;27;20046;-73
2023/08/23 10:28:12;;;;;;;4.87;2.40;;;;;;;;;;5152886;27;20139;-72
2023/08/23 10:30:41;;;;;;;4.82;2.40;;;;;;;;;;5151896;27;20053;-72
2023/08/23 10:33:13;;;;;;;6.68;2.40;;;;;;;;;;5151727;27;20118;-72
2023/08/23 10:35:45;;;;;;;4.03;2.33;;;;;;;;;;5151628;27;20142;-72
2023/08/23 10:38:12;;;;;;;5.93;2.25;;;;;;;;;;5151951;27;20046;-72
2023/08/23 10:40:42;;;;;;;3.00;2.08;;;;;;;;;;5151854;27;20125;-72
2023/08/23 10:43:12;;;;;;;3.97;2.50;;;;;;;;;;5151940;27;20049;-72
2023/08/23 10:45:53;;;;;;;4.80;2.55;;;;;;;;;;5151885;27;20046;-72
2023/08/23 10:48:21;;;;;;;3.90;2.30;;;;;;;;;;5151782;27;20046;-72
2023/08/23 10:50:49;;;;;;;3.28;2.20;;;;;;;;;;5151515;27;20615;-72
2023/08/23 10:53:17;;;;;;;4.63;2.33;;;;;;;;;;5150941;27;20084;-72
2023/08/23 10:55:44;;;;;;;5.38;2.30;;;;;;;;;;5151130;27;20050;-72
2023/08/23 10:58:15;;;;;;;2.95;2.30;;;;;;;;;;5151533;27;20070;-72
2023/08/23 11:00:43;;;;;;;5.22;2.30;;;;;;;;;;5151639;27;20051;-72
2023/08/23 11:03:13;;;;;;;5.50;2.42;;;;;;;;;;5151412;27;20058;-72
2023/08/23 11:05:43;;;;;;;3.72;2.38;;;;;;;;;;5151135;27;20383;-72
2023/08/23 11:08:11;;;;;;;3.65;2.17;;;;;;;;;;5151549;27;20038;-72
2023/08/23 11:10:38;;;;;;;3.80;2.45;;;;;;;;;;5150894;27;20508;-72
2023/08/23 11:13:05;;;;;;;3.70;2.50;;;;;;;;;;5151346;27;20038;-73
2023/08/23 11:15:33;;;;;;;4.13;2.38;;;;;;;;;;5151309;27;20051;-72
2023/08/23 11:18:01;;;;;;;5.38;2.20;;;;;;;;;;5151571;27;20486;-72
2023/08/23 11:20:28;;;;;;;2.40;2.08;;;;;;;;;;5150969;27;20134;-72
2023/08/23 11:22:54;;;;;;;4.47;2.40;;;;;;;;;;5150837;27;20073;-72
2023/08/23 11:25:21;;;;;;;3.15;2.15;;;;;;;;;;5150819;27;20049;-72
2023/08/23 11:27:48;;;;;;;2.78;1.90;;;;;;;;;;5151117;27;20106;-72
2023/08/23 11:30:15;;;;;;;6.68;2.38;;;;;;;;;;5149311;27;20103;-72
2023/08/23 11:32:43;;;;;;;4.32;2.25;;;;;;;;;;5150764;27;20046;-73
2023/08/23 11:35:10;;;;;;;5.28;2.30;;;;;;;;;;5150995;27;20043;-72
2023/08/23 11:37:38;;;;;;;2.83;2.20;;;;;;;;;;5150394;27;20082;-72
2023/08/23 11:40:10;;;;;;;3.08;2.10;;;;;;;;;;5150758;27;20449;-72
2023/08/23 11:42:38;;;;;;;4.07;2.28;;;;;;;;;;5150855;27;20057;-72
2023/08/23 11:45:06;;;;;;;3.83;2.20;;;;;;;;;;5150422;27;20039;-73
2023/08/23 11:47:36;;;;;;;3.15;2.08;;;;;;;;;;5150946;27;20084;-72
2023/08/23 11:50:09;;;;;;;6.60;2.13;;;;;;;;;;5150327;27;20050;-73
2023/08/23 11:52:36;;;;;;;3.42;2.30;;;;;;;;;;5150069;27;20057;-73
2023/08/23 11:55:04;;;;;;;3.05;2.15;;;;;;;;;;5149466;27;20039;-72
2023/08/23 11:57:32;;;;;;;4.60;2.10;;;;;;;;;;5150537;27;20622;-72
2023/08/23 11:59:59;;;;;;;5.80;2.45;;;;;;;;;;5150632;27;20135;-73
2023/08/23 12:02:26;;;;;;;4.25;1.98;;;;;;;;;;5150118;27;20541;-72
2023/08/23 12:04:53;;;;;;;4.10;2.33;;;;;;;;;;5150538;27;20061;-72
2023/08/23 12:07:20;;;;;;;11.82;2.58;;;;;;;;;;5149288;27;20038;-72
2023/08/23 12:09:47;;;;;;;3.05;2.10;;;;;;;;;;5150555;27;20564;-74
2023/08/23 12:12:14;;;;;;;2.92;2.03;;;;;;;;;;5150237;27;20530;-72
2023/08/23 12:14:41;;;;;;;3.80;2.17;;;;;;;;;;5150380;27;20095;-73
2023/08/23 12:17:08;;;;;;;3.58;2.00;;;;;;;;;;5150587;27;20047;-72
2023/08/23 12:19:36;;;;;;;2.65;2.10;;;;;;;;;;5150649;27;20046;-72
2023/08/23 12:22:06;;;;;;;4.78;2.20;;;;;;;;;;5150132;27;20452;-73
2023/08/23 12:24:33;;;;;;;2.50;1.85;;;;;;;;;;5149987;27;20482;-73
2023/08/23 12:27:00;;;;;;;3.90;1.95;;;;;;;;;;5150111;27;20570;-72
2023/08/23 12:29:27;;;;;;;2.55;1.92;;;;;;;;;;5150518;27;20053;-73
2023/08/23 12:31:55;;;;;;;4.30;2.13;;;;;;;;;;5149978;27;20050;-73
2023/08/23 12:34:24;;;;;;;3.15;2.08;;;;;;;;;;5150195;27;20054;-73
2023/08/23 12:36:51;;;;;;;3.78;2.20;;;;;;;;;;5150253;27;20046;-73
2023/08/23 12:39:17;;;;;;;4.13;1.95;;;;;;;;;;5149627;27;20055;-73
2023/08/23 12:41:44;;;;;;;4.90;1.83;;;;;;;;;;5150012;27;20047;-73
2023/08/23 12:44:11;;;;;;;3.63;2.17;;;;;;;;;;5150369;27;20042;-73
2023/08/23 12:46:38;;;;;;;4.13;2.15;;;;;;;;;;5150138;27;20054;-73
2023/08/23 12:49:07;;;;;;;2.83;1.85;;;;;;;;;;5150471;27;20053;-73
2023/08/23 12:51:34;;;;;;;4.22;2.00;;;;;;;;;;5149972;27;20042;-73
2023/08/23 12:54:01;;;;;;;2.83;2.00;;;;;;;;;;5149553;27;20505;-73
2023/08/23 12:56:28;;;;;;;3.72;1.92;;;;;;;;;;5149741;27;20047;-73
2023/08/23 12:58:55;;;;;;;4.45;2.15;;;;;;;;;;5150136;27;20054;-72
2023/08/23 13:01:22;;;;;;;5.20;2.00;;;;;;;;;;5149988;27;20053;-72
2023/08/23 13:03:49;;;;;;;3.28;2.05;;;;;;;;;;5149905;27;20514;-72
2023/08/23 13:06:16;;;;;;;2.97;2.03;;;;;;;;;;5149897;27;20039;-72
2023/08/23 13:08:42;;;;;;;3.97;2.40;;;;;;;;;;5149651;27;20042;-73
2023/08/23 13:11:09;;;;;;;5.80;2.08;;;;;;;;;;5149886;27;20078;-73
2023/08/23 13:13:39;;;;;;;3.20;2.10;;;;;;;;;;5149660;27;20042;-73
2023/08/23 13:16:06;;;;;;;3.25;1.80;;;;;;;;;;5149588;27;20541;-73
2023/08/23 13:18:33;;;;;;;3.47;2.00;;;;;;;;;;5152819;27;20042;-73
2023/08/23 13:21:01;;;;;;;3.00;1.70;;;;;;;;;;5152152;27;20050;-73
2023/08/23 13:23:28;;;;;;;2.00;1.60;;;;;;;;;;5153387;27;20046;-73
2023/08/23 13:25:55;;;;;;;4.78;2.00;;;;;;;;;;5153491;27;20047;-73
2023/08/23 13:28:24;;;;;;;3.65;1.80;;;;;;;;;;5153395;27;20411;-73
2023/08/23 13:30:50;;;;;;;3.83;1.60;;;;;;;;;;5153108;27;20577;-73
2023/08/23 13:33:17;;;;;;;3.75;1.75;;;;;;;;;;5152592;27;20053;-73
2023/08/23 13:35:44;;;;;;;2.05;1.67;;;;;;;;;;5153348;27;20050;-72
2023/08/23 13:38:12;;;;;;;6.47;1.90;;;;;;;;;;5152647;27;20142;-72
2023/08/23 13:40:39;;;;;;;2.63;2.00;;;;;;;;;;5153138;27;20498;-72
2023/08/23 13:43:06;;;;;;;3.53;1.85;;;;;;;;;;5151920;27;20057;-73
2023/08/23 13:45:44;;;;;;;3.08;2.10;;;;;;;;;;5153286;27;20046;-73
2023/08/23 13:48:11;;;;;;;3.58;2.22;;;;;;;;;;5153061;27;20043;-73
2023/08/23 13:50:38;;;;;;;2.72;1.80;;;;;;;;;;5152784;27;20046;-73
2023/08/23 13:53:05;;;;;;;4.07;1.95;;;;;;;;;;5152139;27;20054;-73
2023/08/23 13:55:32;;;;;;;2.97;1.80;;;;;;;;;;5153153;27;20050;-73
2023/08/23 13:57:58;;;;;;;3.63;2.08;;;;;;;;;;5152694;27;20631;-72
2023/08/23 14:00:26;;;;;;;3.13;1.83;;;;;;;;;;5153114;27;20039;-73
2023/08/23 14:02:52;;;;;;;3.35;2.22;;;;;;;;;;5152530;27;20038;-73
2023/08/23 14:05:19;;;;;;;3.72;2.05;;;;;;;;;;5152873;27;20049;-72
2023/08/23 14:07:46;;;;;;;4.28;2.13;;;;;;;;;;5151851;27;20043;-73
2023/08/23 14:10:13;;;;;;;5.85;2.03;;;;;;;;;;5152512;27;20047;-73
2023/08/23 14:12:40;;;;;;;2.50;1.80;;;;;;;;;;5152295;27;20403;-72
2023/08/23 14:15:06;;;;;;;2.38;1.75;;;;;;;;;;5152233;27;20418;-73
2023/08/23 14:17:33;;;;;;;7.07;1.63;;;;;;;;;;5152370;27;20043;-73
2023/08/23 14:20:00;;;;;;;6.47;1.65;;;;;;;;;;5152869;27;20050;-73
2023/08/23 14:22:26;;;;;;;3.67;1.90;;;;;;;;;;5151929;27;20042;-73
2023/08/23 14:24:53;;;;;;;5.45;1.83;;;;;;;;;;5151915;27;20049;-72
2023/08/23 14:27:20;;;;;;;7.38;1.88;;;;;;;;;;5151874;27;20047;-72
2023/08/23 14:29:46;;;;;;;4.57;1.85;;;;;;;;;;5150486;27;20046;-73
2023/08/23 14:32:17;;;;;;;3.30;1.80;;;;;;;;;;5151848;27;20049;-73
2023/08/23 14:34:44;;;;;;;2.97;1.70;;;;;;;;;;5151977;27;20051;-73
2023/08/23 14:37:11;;;;;;;3.88;1.75;;;;;;;;;;5151985;27;20047;-73
2023/08/23 14:39:38;;;;;;;7.00;1.92;;;;;;;;;;5152114;27;20156;-73
2023/08/23 14:42:06;;;;;;;3.60;1.70;;;;;;;;;;5151970;27;20078;-72
2023/08/23 14:44:32;;;;;;;2.38;1.70;;;;;;;;;;5151468;27;20503;-73
2023/08/23 14:46:59;;;;;;;3.67;1.90;;;;;;;;;;5151488;27;20452;-73